Time;durP1;ratioP1;P1;durP2;ratioP2;P2;SDS_P1;SDS_P2;PMS_P1;PMS_P2;Temp;Humidity;BMP_temperature;BMP_pressure;BME280_temperature;BME280_humidity;BME280_pressure;Samples;Min_cycle;Max_cycle;Signal;HPM_P1;HPM_P2
2022/09/09 00:01:37;;;;;;;17.40;7.23;;;;;;;14.96;81.47;98733.78;1756162;82;21007;-46
2022/09/09 00:04:25;;;;;;;15.35;7.17;;;;;;;14.94;83.06;98729.59;1755735;81;21003;-41
2022/09/09 00:07:17;;;;;;;14.95;7.33;;;;;;;14.93;82.45;98727.91;1756179;81;20979;-43
2022/09/09 00:10:07;;;;;;;17.95;8.70;;;;;;;14.92;82.62;98722.27;1756026;81;20952;-47
2022/09/09 00:12:56;;;;;;;9.53;6.58;;;;;;;14.94;82.81;98722.97;1720190;82;21552;-42
2022/09/09 00:15:27;;;;;;;13.38;6.55;;;;;;;14.93;81.98;98720.79;1720567;83;21038;-46
2022/09/09 00:18:09;;;;;;;18.60;6.83;;;;;;;14.93;83.81;98728.73;1720717;82;21504;-45
2022/09/09 00:20:50;;;;;;;14.93;7.42;;;;;;;14.92;84.08;98723.09;1720742;82;21038;-44
2022/09/09 00:23:39;;;;;;;11.15;7.15;;;;;;;14.94;83.39;98717.19;1720718;82;21034;-39
2022/09/09 00:26:34;;;;;;;15.68;6.75;;;;;;;14.94;82.84;98719.84;1720755;82;21591;-41
2022/09/09 00:29:14;;;;;;;13.72;6.87;;;;;;;14.83;84.73;98714.59;1720869;83;21006;-40
2022/09/09 00:31:40;;;;;;;15.98;6.78;;;;;;;14.86;83.67;98713.02;1720731;83;20955;-43
2022/09/09 00:34:23;;;;;;;12.68;7.22;;;;;;;14.89;83.00;98712.75;1720758;82;21433;-41
2022/09/09 00:36:52;;;;;;;13.98;6.78;;;;;;;14.86;84.35;98717.00;1720672;82;21023;-40
2022/09/09 00:39:35;;;;;;;10.58;6.75;;;;;;;14.84;84.74;98717.58;1720734;82;20967;-43
2022/09/09 00:42:18;;;;;;;14.65;7.37;;;;;;;14.90;83.12;98714.94;1719539;82;21539;-46
2022/09/09 00:45:20;;;;;;;16.17;7.03;;;;;;;14.86;84.20;98711.70;1720750;83;21512;-41
2022/09/09 00:47:51;;;;;;;12.65;7.00;;;;;;;14.86;83.89;98712.16;1687822;83;21054;-39
2022/09/09 00:50:32;;;;;;;10.20;6.87;;;;;;;14.79;84.01;98715.81;1746827;82;21122;-45
2022/09/09 00:53:27;;;;;;;14.45;6.87;;;;;;;14.80;85.84;98713.51;1753186;82;21452;-47
2022/09/09 00:56:16;;;;;;;13.90;6.87;;;;;;;14.82;83.94;98716.87;1753143;81;20990;-45
2022/09/09 00:58:45;;;;;;;11.10;6.75;;;;;;;14.85;84.58;98714.47;1753455;82;20990;-44
2022/09/09 01:01:13;;;;;;;13.43;7.03;;;;;;;14.85;85.25;98720.59;1753217;81;21014;-45
2022/09/09 01:03:55;;;;;;;10.98;7.50;;;;;;;14.85;85.30;98716.62;1753422;80;21475;-40
2022/09/09 01:06:38;;;;;;;14.73;7.70;;;;;;;14.89;85.37;98714.08;1753532;81;21514;-41
2022/09/09 01:09:52;;;;;;;14.20;7.70;;;;;;;14.91;85.88;98725.38;1753517;81;21018;-41
2022/09/09 01:12:36;;;;;;;11.40;7.20;;;;;;;14.94;85.95;98724.30;1753377;82;20994;-43
2022/09/09 01:15:13;;;;;;;10.95;7.45;;;;;;;14.96;84.70;98722.36;1745116;82;20983;-41
2022/09/09 01:17:52;;;;;;;;;;;;;;;14.96;85.54;98727.16;1755713;81;21468;-45
2022/09/09 01:20:26;;;;;;;13.25;7.83;;;;;;;14.97;85.10;98729.32;1753515;82;20132;-40
2022/09/09 01:23:28;;;;;;;17.32;8.25;;;;;;;14.97;84.39;98727.53;1753226;80;21669;-44
2022/09/09 01:26:34;;;;;;;13.75;8.20;;;;;;;14.95;84.57;98726.83;1753442;82;20979;-46
2022/09/09 01:29:00;;;;;;;14.73;7.78;;;;;;;14.83;84.63;98725.67;1753414;82;21483;-46
2022/09/09 01:31:33;;;;;;;16.48;8.53;;;;;;;14.87;83.16;98726.59;1753468;82;21014;-39
2022/09/09 01:33:59;;;;;;;20.72;7.78;;;;;;;14.89;84.65;98732.61;1753473;81;20959;-44
2022/09/09 01:36:33;;;;;;;14.07;7.97;;;;;;;14.89;84.56;98740.55;1753537;82;21447;-41
2022/09/09 01:38:59;;;;;;;16.12;8.50;;;;;;;14.84;85.41;98745.38;1753576;82;21017;-45
2022/09/09 01:41:25;;;;;;;15.98;7.62;;;;;;;14.80;85.82;98755.86;1753379;82;20995;-42
2022/09/09 01:43:51;;;;;;;15.13;7.97;;;;;;;14.81;85.42;98755.37;1753349;80;21042;-45
2022/09/09 01:46:21;;;;;;;15.13;8.15;;;;;;;14.83;84.57;98771.50;1753486;82;21518;-45
2022/09/09 01:48:48;;;;;;;19.75;8.50;;;;;;;14.78;86.24;98763.09;1759151;80;21013;-43
2022/09/09 01:51:14;;;;;;;;;;;;;;;14.75;86.21;98767.30;1764089;80;20983;-45
2022/09/09 01:53:42;;;;;;;15.13;8.10;;;;;;;14.76;87.33;98772.96;1761496;80;20413;-41
2022/09/09 01:56:25;;;;;;;12.98;8.00;;;;;;;14.77;86.97;98771.52;1761390;81;21511;-40
2022/09/09 01:59:26;;;;;;;13.18;8.75;;;;;;;14.75;86.67;98767.30;1761480;81;20959;-41
2022/09/09 02:02:20;;;;;;;15.43;8.88;;;;;;;14.77;87.06;98764.91;1761356;80;20987;-45
2022/09/09 02:04:53;;;;;;;18.42;9.35;;;;;;;14.84;86.51;98773.17;1761497;81;21019;-39
2022/09/09 02:07:38;;;;;;;16.00;8.45;;;;;;;14.82;86.45;98773.78;1761335;81;20991;-41
2022/09/09 02:10:11;;;;;;;16.82;8.58;;;;;;;14.82;87.13;98769.80;1761410;81;20999;-44
2022/09/09 02:12:41;;;;;;;23.67;8.75;;;;;;;14.84;86.63;98777.14;1756800;81;20979;-44
2022/09/09 02:15:15;;;;;;;15.68;8.90;;;;;;;14.87;86.25;98774.74;1761436;81;20960;-40
2022/09/09 02:17:42;;;;;;;15.20;8.55;;;;;;;14.88;86.49;98774.63;1761379;81;21035;-50
2022/09/09 02:20:12;;;;;;;16.65;9.80;;;;;;;14.86;86.61;98779.20;1761591;81;20991;-43
2022/09/09 02:22:43;;;;;;;18.55;9.68;;;;;;;14.88;87.47;98778.59;1761028;81;21050;-44
2022/09/09 02:25:13;;;;;;;18.90;8.78;;;;;;;14.92;86.06;98776.54;1760220;81;21097;-43
2022/09/09 02:27:43;;;;;;;17.52;9.13;;;;;;;14.92;86.38;98777.37;1761309;81;21015;-41
2022/09/09 02:30:10;;;;;;;15.08;9.33;;;;;;;14.93;86.46;98779.03;1761315;81;21524;-41
2022/09/09 02:32:39;;;;;;;15.05;9.33;;;;;;;14.94;86.61;98775.44;1761336;80;20975;-47
2022/09/09 02:35:10;;;;;;;16.40;9.65;;;;;;;14.97;86.46;98779.63;1761321;81;20984;-45
2022/09/09 02:37:39;;;;;;;17.92;9.75;;;;;;;14.95;86.84;98783.75;1761334;81;21030;-40
2022/09/09 02:43:03;;;;;;;16.75;9.83;;;;;;;14.97;86.67;98783.14;1655261;80;21111;-40
2022/09/09 02:45:44;;;;;;;16.62;9.48;;;;;;;14.98;86.99;98782.64;1650321;87;21111;-46
2022/09/09 02:48:33;;;;;;;18.87;9.80;;;;;;;15.00;87.10;98784.68;1624418;87;21039;-46
2022/09/09 02:51:16;;;;;;;17.17;10.10;;;;;;;15.03;86.33;98786.25;1650629;86;21481;-41
2022/09/09 02:53:54;;;;;;;16.67;9.93;;;;;;;15.04;86.54;98785.27;1650702;87;21596;-41
2022/09/09 02:56:23;;;;;;;19.92;10.03;;;;;;;15.04;86.61;98785.27;1635303;85;21022;-45
2022/09/09 02:58:49;;;;;;;15.98;9.73;;;;;;;15.00;86.84;98786.50;1639015;86;21058;-46
2022/09/09 03:01:15;;;;;;;18.85;10.48;;;;;;;15.00;86.24;98789.14;1639380;87;21519;-49
2022/09/09 03:03:42;;;;;;;18.17;10.50;;;;;;;14.97;86.82;98790.22;1639078;86;21067;-45
2022/09/09 03:06:08;;;;;;;21.45;10.70;;;;;;;14.97;86.75;98787.11;1639254;86;21029;-46
2022/09/09 03:08:33;;;;;;;18.15;10.35;;;;;;;14.99;86.58;98792.28;1639098;87;21055;-44
2022/09/09 03:11:01;;;;;;;19.70;11.05;;;;;;;14.95;86.98;98786.86;1639086;87;21006;-48
2022/09/09 03:13:27;;;;;;;;;;;;;;;14.93;87.27;98791.44;1641691;87;21059;-41
2022/09/09 03:15:53;;;;;;;17.15;10.95;;;;;;;14.87;87.90;98786.66;1639198;86;20115;-52
2022/09/09 03:18:18;;;;;;;18.45;10.95;;;;;;;14.89;88.49;98777.61;1639280;86;21043;-45
2022/09/09 03:20:48;;;;;;;20.40;11.60;;;;;;;14.91;87.80;98786.75;1639204;87;20995;-41
2022/09/09 03:23:15;;;;;;;21.87;11.15;;;;;;;14.84;88.50;98778.46;1639174;87;21447;-43
2022/09/09 03:25:51;;;;;;;15.90;10.90;;;;;;;14.85;88.22;98785.45;1639405;86;21034;-44
2022/09/09 03:28:17;;;;;;;18.02;10.93;;;;;;;14.87;88.14;98786.66;1639109;86;21255;-44
2022/09/09 03:30:42;;;;;;;19.50;11.15;;;;;;;14.86;88.70;98783.63;1639175;87;21069;-44
2022/09/09 03:33:08;;;;;;;19.00;10.13;;;;;;;14.87;88.89;98791.95;1639207;87;21063;-41
2022/09/09 03:35:34;;;;;;;22.22;10.50;;;;;;;14.88;88.44;98793.16;1639208;87;21023;-46
2022/09/09 03:38:00;;;;;;;20.10;11.38;;;;;;;14.90;88.39;98790.39;1639252;87;21539;-40
2022/09/09 03:40:26;;;;;;;16.82;10.75;;;;;;;14.87;88.64;98790.63;1639161;86;21075;-46
2022/09/09 03:42:52;;;;;;;19.90;11.15;;;;;;;14.90;88.29;98787.25;1643784;85;21059;-47
2022/09/09 03:45:18;;;;;;;24.57;10.23;;;;;;;14.91;88.62;98791.56;1645991;87;21371;-45
2022/09/09 03:47:43;;;;;;;22.15;10.43;;;;;;;14.96;87.69;98796.00;1646102;86;20999;-46
2022/09/09 03:50:10;;;;;;;18.05;10.13;;;;;;;14.96;87.89;98793.36;1646140;86;21022;-41
2022/09/09 03:52:41;;;;;;;20.62;10.65;;;;;;;14.95;89.18;98797.45;1646229;87;21014;-44
2022/09/09 03:55:08;;;;;;;22.40;10.43;;;;;;;14.95;88.85;98796.13;1646028;87;21419;-43
2022/09/09 03:57:35;;;;;;;21.57;10.90;;;;;;;14.93;89.68;98790.12;1646180;86;21079;-44
2022/09/09 04:00:07;;;;;;;;;;;;;;;14.94;89.81;98788.67;1648714;86;21019;-42
2022/09/09 04:02:32;;;;;;;22.82;12.10;;;;;;;14.90;90.98;98791.22;1646083;87;20123;-43
2022/09/09 04:04:59;;;;;;;22.00;11.73;;;;;;;14.90;89.79;98796.52;1646040;85;21051;-44
2022/09/09 04:07:27;;;;;;;27.67;11.73;;;;;;;14.90;90.25;98802.30;1646173;87;21051;-40
2022/09/09 04:09:54;;;;;;;30.70;13.05;;;;;;;14.92;90.27;98794.58;1645998;87;21567;-43
2022/09/09 04:12:20;;;;;;;19.50;11.20;;;;;;;14.96;90.28;98801.79;1646221;86;21043;-39
2022/09/09 04:14:46;;;;;;;25.12;12.28;;;;;;;14.98;89.50;98800.69;1646135;87;21030;-46
2022/09/09 04:17:12;;;;;;;22.32;12.65;;;;;;;14.99;90.38;98809.49;1646071;87;20995;-42
2022/09/09 04:19:38;;;;;;;25.12;13.65;;;;;;;15.03;89.86;98815.38;1646080;85;21511;-46
2022/09/09 04:22:04;;;;;;;27.45;12.98;;;;;;;14.97;90.45;98810.94;1646108;87;20990;-44
2022/09/09 04:24:30;;;;;;;30.08;13.20;;;;;;;14.93;90.40;98813.94;1646060;87;21102;-39
2022/09/09 04:26:55;;;;;;;26.80;12.65;;;;;;;14.93;90.36;98806.00;1646049;87;21516;-44
2022/09/09 04:29:21;;;;;;;29.20;13.43;;;;;;;14.93;90.20;98811.30;1646133;87;21014;-43
2022/09/09 04:31:47;;;;;;;29.63;12.90;;;;;;;14.93;90.31;98817.42;1646135;87;21026;-42
2022/09/09 04:34:13;;;;;;;26.90;12.68;;;;;;;14.97;90.88;98818.02;1646057;87;21050;-43
2022/09/09 04:36:40;;;;;;;27.85;13.32;;;;;;;14.97;91.44;98815.37;1646032;87;21007;-46
2022/09/09 04:39:06;;;;;;;27.70;13.30;;;;;;;15.01;90.97;98812.86;1646165;86;21015;-41
2022/09/09 04:41:32;;;;;;;33.48;14.63;;;;;;;15.03;91.05;98812.73;1646625;86;21014;-41
2022/09/09 04:43:59;;;;;;;32.00;14.73;;;;;;;15.05;91.51;98816.09;1660762;86;21492;-40
2022/09/09 04:46:25;;;;;;;32.53;14.38;;;;;;;15.07;91.93;98811.51;1660894;85;21023;-40
2022/09/09 04:48:52;;;;;;;32.70;15.25;;;;;;;15.11;91.25;98815.58;1660861;86;21019;-42
2022/09/09 04:51:18;;;;;;;28.80;15.23;;;;;;;15.14;91.55;98820.64;1660860;85;20987;-46
2022/09/09 04:53:46;;;;;;;34.35;14.55;;;;;;;15.15;91.84;98817.88;1660826;86;21611;-47
2022/09/09 04:56:17;;;;;;;30.68;15.03;;;;;;;15.14;92.62;98821.47;1660856;86;21019;-47
2022/09/09 04:58:43;;;;;;;30.45;15.43;;;;;;;15.15;92.98;98815.68;1660784;86;21023;-39
2022/09/09 05:01:13;;;;;;;29.80;14.63;;;;;;;15.18;92.74;98817.26;1660791;86;21058;-40
2022/09/09 05:03:39;;;;;;;33.40;16.37;;;;;;;15.21;92.85;98824.93;1660726;85;21553;-47
2022/09/09 05:06:09;;;;;;;39.25;17.48;;;;;;;15.19;93.60;98821.56;1660697;85;20999;-39
2022/09/09 05:08:37;;;;;;;48.20;17.57;;;;;;;15.13;94.28;98819.80;1660243;85;21560;-46
2022/09/09 05:11:06;;;;;;;40.38;16.55;;;;;;;15.15;94.52;98822.30;1660766;85;21019;-46
2022/09/09 05:13:31;;;;;;;38.98;16.73;;;;;;;15.20;94.05;98829.88;1654539;86;21520;-45
2022/09/09 05:15:58;;;;;;;42.00;16.80;;;;;;;15.19;94.64;98823.75;1660722;86;21015;-45
2022/09/09 05:18:24;;;;;;;40.78;16.85;;;;;;;15.23;94.85;98829.64;1660727;85;21058;-49
2022/09/09 05:20:50;;;;;;;36.50;16.35;;;;;;;15.26;94.22;98831.56;1660723;85;21019;-44
2022/09/09 05:23:16;;;;;;;35.63;17.73;;;;;;;15.25;95.42;98828.54;1660919;86;21451;-45
2022/09/09 05:25:43;;;;;;;35.20;16.17;;;;;;;15.25;95.16;98831.68;1660806;86;21058;-44
2022/09/09 05:28:09;;;;;;;39.85;17.10;;;;;;;15.25;95.33;98831.19;1661016;85;21047;-44
2022/09/09 05:30:35;;;;;;;29.75;16.17;;;;;;;15.28;95.87;98827.44;1660754;86;21055;-45
2022/09/09 05:33:01;;;;;;;33.83;16.70;;;;;;;15.30;95.52;98826.85;1660696;86;21027;-37
2022/09/09 05:35:27;;;;;;;30.82;16.40;;;;;;;15.37;93.94;98821.38;1660780;86;21112;-44
2022/09/09 05:37:53;;;;;;;30.17;16.17;;;;;;;15.42;94.87;98833.77;1660726;85;21015;-41
2022/09/09 05:40:18;;;;;;;29.42;15.95;;;;;;;15.48;93.42;98825.78;1660766;86;21532;-45
2022/09/09 05:42:44;;;;;;;29.15;16.35;;;;;;;15.49;94.61;98827.48;1660646;86;21509;-45
2022/09/09 05:45:10;;;;;;;33.78;17.05;;;;;;;15.51;93.23;98832.16;1660731;85;21031;-41
2022/09/09 05:47:37;;;;;;;30.25;17.35;;;;;;;15.48;96.29;98837.71;1660660;86;20992;-46
2022/09/09 05:50:03;;;;;;;32.87;17.23;;;;;;;15.54;95.04;98833.25;1661018;86;21015;-39
2022/09/09 05:52:29;;;;;;;30.62;16.87;;;;;;;15.55;96.04;98830.94;1660858;86;21603;-48
2022/09/09 05:54:56;;;;;;;31.77;16.80;;;;;;;15.56;97.59;98837.93;1660753;86;21595;-42
2022/09/09 05:57:22;;;;;;;30.77;17.17;;;;;;;15.60;97.14;98839.34;1660806;86;21007;-42
2022/09/09 05:59:49;;;;;;;35.50;17.92;;;;;;;15.66;96.52;98841.97;1660708;85;21023;-45
2022/09/09 06:02:16;;;;;;;32.70;17.15;;;;;;;15.66;96.74;98849.92;1660710;86;21039;-47
2022/09/09 06:04:42;;;;;;;34.33;17.70;;;;;;;15.64;97.08;98839.44;1643753;86;21031;-40
2022/09/09 06:07:07;;;;;;;32.25;19.02;;;;;;;15.64;97.08;98839.44;1660762;85;22264;-48
2022/09/09 06:09:33;;;;;;;32.65;18.30;;;;;;;15.74;95.76;98848.34;1660739;86;21512;-41
2022/09/09 06:11:59;;;;;;;29.82;17.40;;;;;;;15.79;95.29;98851.09;1660892;86;21503;-49
2022/09/09 06:14:26;;;;;;;36.83;18.80;;;;;;;15.84;94.23;98846.25;1660473;85;20976;-40
2022/09/09 06:16:52;;;;;;;35.63;18.80;;;;;;;15.85;96.06;98852.75;1660475;86;21015;-42
2022/09/09 06:19:20;;;;;;;30.68;18.50;;;;;;;15.88;95.05;98851.64;1660576;86;21060;-40
2022/09/09 06:21:47;;;;;;;31.48;18.20;;;;;;;15.89;97.23;98858.64;1660382;85;21496;-41
2022/09/09 06:24:17;;;;;;;33.30;18.75;;;;;;;15.93;95.99;98859.59;1660556;85;21019;-38
2022/09/09 06:26:41;;;;;;;40.85;18.37;;;;;;;15.91;96.16;98858.85;1660118;86;21047;-39
2022/09/09 06:29:07;;;;;;;34.83;19.60;;;;;;;15.95;96.65;98851.48;1660558;85;21022;-44
2022/09/09 06:31:36;;;;;;;53.60;20.23;;;;;;;15.99;97.39;98854.25;1660600;86;21023;-49
2022/09/09 06:34:06;;;;;;;34.40;18.60;;;;;;;16.00;98.23;98862.55;1660805;85;21063;-42
2022/09/09 06:36:35;;;;;;;25.45;15.45;;;;;;;16.07;95.16;98864.20;1660626;86;21023;-44
2022/09/09 06:39:01;;;;;;;28.02;16.50;;;;;;;16.02;96.85;98863.75;1660768;86;21500;-46
2022/09/09 06:41:29;;;;;;;28.15;16.87;;;;;;;16.00;97.50;98867.84;1660603;85;21066;-40
2022/09/09 06:43:56;;;;;;;28.05;17.65;;;;;;;15.95;99.37;98864.73;1620624;86;21031;-39
2022/09/09 06:46:28;;;;;;;30.00;17.77;;;;;;;16.00;98.31;98866.52;1643648;87;21499;-42
2022/09/09 06:48:55;;;;;;;31.10;17.48;;;;;;;16.08;97.63;98868.05;1643724;87;21052;-39
2022/09/09 06:51:24;;;;;;;25.90;17.30;;;;;;;16.12;96.23;98868.14;1643650;87;21019;-42
2022/09/09 06:53:55;;;;;;;29.67;16.75;;;;;;;16.21;96.31;98870.96;1643564;87;21054;-42
2022/09/09 06:56:34;;;;;;;25.55;15.83;;;;;;;16.25;97.03;98872.41;1643514;85;21430;-38
2022/09/09 06:59:03;;;;;;;23.05;15.32;;;;;;;16.30;96.67;98872.86;1643164;86;21067;-42
2022/09/09 07:01:33;;;;;;;22.55;15.00;;;;;;;16.34;96.84;98874.27;1643694;85;21027;-37
2022/09/09 07:04:00;;;;;;;24.35;16.05;;;;;;;16.39;96.14;98877.38;1643412;87;21026;-43
2022/09/09 07:06:30;;;;;;;24.70;15.05;;;;;;;16.45;95.97;98880.81;1643780;87;21070;-41
2022/09/09 07:09:03;;;;;;;24.35;14.83;;;;;;;16.43;97.00;98885.41;1643315;87;21011;-41
2022/09/09 07:11:33;;;;;;;26.40;14.33;;;;;;;16.49;95.98;98883.55;1643565;86;21464;-45
2022/09/09 07:14:01;;;;;;;20.30;13.62;;;;;;;16.58;95.27;98886.39;1648953;85;20988;-42
2022/09/09 07:16:29;;;;;;;25.40;13.05;;;;;;;16.65;94.48;98891.53;1654186;86;21020;-41
2022/09/09 07:18:57;;;;;;;24.43;14.50;;;;;;;16.70;94.04;98890.64;1653941;85;21487;-41
2022/09/09 07:21:30;;;;;;;20.23;14.25;;;;;;;16.72;93.65;98887.37;1654686;86;21035;-48
2022/09/09 07:23:54;;;;;;;19.90;13.72;;;;;;;16.79;93.96;98889.84;1654220;87;21079;-43
2022/09/09 07:26:23;;;;;;;24.93;13.77;;;;;;;16.81;93.74;98891.88;1655269;87;21004;-41
2022/09/09 07:28:49;;;;;;;19.60;13.85;;;;;;;16.85;93.01;98888.00;1655123;87;20988;-44
2022/09/09 07:31:20;;;;;;;20.92;13.15;;;;;;;16.95;92.64;98896.48;1655286;87;21012;-43
2022/09/09 07:33:47;;;;;;;19.37;13.62;;;;;;;16.95;92.92;98896.48;1655072;87;21015;-45
2022/09/09 07:36:17;;;;;;;17.60;12.37;;;;;;;17.05;91.79;98896.86;1655230;87;21023;-45
2022/09/09 07:38:47;;;;;;;19.30;13.00;;;;;;;17.12;91.41;98898.50;1655160;86;21489;-43
2022/09/09 07:41:26;;;;;;;16.90;12.05;;;;;;;17.20;91.32;98903.13;1655185;86;21062;-42
2022/09/09 07:43:55;;;;;;;18.07;12.50;;;;;;;17.18;90.99;98899.77;1653452;86;21100;-44
2022/09/09 07:46:25;;;;;;;19.40;12.43;;;;;;;17.20;90.64;98910.59;1652569;86;21528;-43
2022/09/09 07:48:54;;;;;;;25.52;14.03;;;;;;;17.23;90.41;98908.17;1652736;87;21513;-41
2022/09/09 07:51:28;;;;;;;23.65;14.10;;;;;;;17.23;90.61;98906.34;1652749;87;21501;-42
2022/09/09 07:53:58;;;;;;;16.93;11.88;;;;;;;17.28;90.32;98912.56;1651178;87;21014;-40
2022/09/09 07:56:26;;;;;;;17.23;11.65;;;;;;;17.28;90.35;98913.89;1652669;86;21028;-45
2022/09/09 07:58:54;;;;;;;18.98;11.53;;;;;;;17.35;90.24;98914.19;1652762;86;21059;-41
2022/09/09 08:01:27;;;;;;;14.98;11.65;;;;;;;17.42;89.43;98924.63;1652245;86;21036;-44
2022/09/09 08:04:01;;;;;;;12.75;10.32;;;;;;;17.48;88.97;98933.37;1652037;87;20988;-44
2022/09/09 08:06:30;;;;;;;12.98;10.85;;;;;;;17.52;88.25;98936.59;1652617;86;21540;-44
2022/09/09 08:08:55;;;;;;;15.65;10.08;;;;;;;17.59;88.28;98939.05;1652435;86;21032;-44
2022/09/09 08:11:25;;;;;;;11.30;9.83;;;;;;;17.70;87.80;98944.73;1651488;86;21465;-42
2022/09/09 08:13:51;;;;;;;11.00;9.75;;;;;;;17.79;87.38;98943.44;1651367;87;21043;-45
2022/09/09 08:16:25;;;;;;;11.48;9.05;;;;;;;17.88;87.06;98939.59;1643804;87;21471;-43
2022/09/09 08:18:52;;;;;;;10.00;8.18;;;;;;;17.99;86.58;98940.31;1643411;86;21005;-39
2022/09/09 08:21:27;;;;;;;9.20;8.00;;;;;;;18.13;86.00;98939.02;1642592;86;21009;-47
2022/09/09 08:23:56;;;;;;;8.75;7.85;;;;;;;18.25;85.83;98933.07;1642130;87;20990;-43
2022/09/09 08:26:31;;;;;;;11.93;7.62;;;;;;;18.34;84.68;98938.87;1643239;87;21029;-43
2022/09/09 08:28:59;;;;;;;8.03;7.03;;;;;;;18.41;83.96;98940.47;1643556;87;21017;-45
2022/09/09 08:31:35;;;;;;;8.70;7.78;;;;;;;18.55;83.72;98943.98;1643038;86;21010;-41
2022/09/09 08:34:04;;;;;;;10.28;8.00;;;;;;;18.69;83.41;98953.84;1642517;87;21038;-46
2022/09/09 08:36:35;;;;;;;10.13;8.43;;;;;;;18.64;82.45;98949.44;1642032;87;21507;-45
2022/09/09 08:39:03;;;;;;;10.00;8.08;;;;;;;18.72;82.58;98951.73;1643151;87;21005;-47
2022/09/09 08:41:43;;;;;;;12.10;8.70;;;;;;;18.66;82.41;98945.64;1643615;87;21032;-45
2022/09/09 08:44:38;;;;;;;9.25;7.65;;;;;;;18.76;82.53;98945.62;1633722;87;21051;-44
2022/09/09 08:47:46;;;;;;;9.95;7.08;;;;;;;18.85;81.97;98950.11;1634087;86;21026;-46
2022/09/09 08:50:25;;;;;;;7.70;6.90;;;;;;;18.95;81.48;98956.22;1627916;88;21043;-46
2022/09/09 08:53:16;;;;;;;8.05;7.10;;;;;;;18.92;81.49;98958.37;1644923;87;21023;-42
2022/09/09 08:55:54;;;;;;;10.65;6.10;;;;;;;18.85;80.75;98959.43;1645793;87;20996;-43
2022/09/09 08:58:32;;;;;;;6.20;5.60;;;;;;;18.80;80.48;98958.99;1645846;87;21032;-47
2022/09/09 09:01:18;;;;;;;8.55;6.28;;;;;;;18.83;79.98;98966.73;1645422;87;21028;-40
2022/09/09 09:04:13;;;;;;;7.30;4.87;;;;;;;18.85;79.95;98959.43;1645939;87;21032;-41
2022/09/09 09:06:48;;;;;;;4.20;3.80;;;;;;;18.98;79.63;98951.94;1645962;87;21036;-40
2022/09/09 09:09:34;;;;;;;4.22;3.75;;;;;;;19.26;78.44;98953.77;1645957;87;21535;-45
2022/09/09 09:12:05;;;;;;;7.78;4.95;;;;;;;19.40;77.20;98958.61;1645847;87;21027;-44
2022/09/09 09:14:34;;;;;;;8.65;6.95;;;;;;;19.46;76.73;98957.99;1645355;87;21063;-42
2022/09/09 09:17:06;;;;;;;10.45;7.90;;;;;;;19.39;77.46;98960.91;1628945;87;21024;-42
2022/09/09 09:19:34;;;;;;;11.22;8.23;;;;;;;19.37;77.76;98973.56;1646012;87;21585;-43
2022/09/09 09:22:25;;;;;;;19.60;8.00;;;;;;;19.43;78.20;98974.78;1643191;87;20999;-44
2022/09/09 09:25:10;;;;;;;9.80;7.65;;;;;;;19.91;77.27;98970.49;1665949;86;21152;-42
2022/09/09 09:28:05;;;;;;;9.60;6.67;;;;;;;20.01;75.92;98976.25;1658005;85;21386;-40
2022/09/09 09:30:40;;;;;;;7.03;6.00;;;;;;;20.03;74.71;98972.92;1680467;85;21449;-41
2022/09/09 09:33:49;;;;;;;9.30;5.50;;;;;;;20.30;76.11;98970.17;1680803;84;21045;-44
2022/09/09 09:36:15;;;;;;;5.75;5.22;;;;;;;20.25;74.76;98977.81;1680954;84;21020;-49
2022/09/09 09:38:59;;;;;;;8.55;4.78;;;;;;;20.11;73.24;98974.34;1680784;85;21664;-42
2022/09/09 09:41:38;;;;;;;5.40;4.85;;;;;;;20.27;72.70;98971.81;1653203;87;21017;-48
2022/09/09 09:44:06;;;;;;;5.22;4.45;;;;;;;20.58;72.73;98967.87;1660059;86;21079;-46
2022/09/09 09:46:32;;;;;;;4.92;4.53;;;;;;;20.76;70.85;98966.52;1667940;86;21493;-41
2022/09/09 09:49:05;;;;;;;6.30;3.90;;;;;;;20.91;68.17;98967.59;1668262;86;21020;-45
2022/09/09 09:51:33;;;;;;;14.55;4.53;;;;;;;21.50;70.87;98970.34;1667756;86;21035;-41
2022/09/09 09:54:16;;;;;;;5.80;4.80;;;;;;;21.32;64.84;98975.80;1667777;86;20984;-41
2022/09/09 09:56:43;;;;;;;5.03;4.47;;;;;;;21.95;68.50;98971.78;1661369;86;21604;-40
2022/09/09 09:59:31;;;;;;;;;;;;;;;21.70;62.38;98975.42;1670359;84;21032;-44
2022/09/09 10:02:19;;;;;;;6.17;4.00;;;;;;;22.10;65.44;98981.33;1668047;86;20185;-47
2022/09/09 10:04:46;;;;;;;7.55;4.95;;;;;;;22.20;65.53;98983.35;1668045;86;21517;-43
2022/09/09 10:07:19;;;;;;;7.37;4.62;;;;;;;22.13;64.65;98982.86;1668249;86;21024;-43
2022/09/09 10:09:53;;;;;;;4.70;3.90;;;;;;;22.24;64.44;98988.70;1668009;86;20993;-43
2022/09/09 10:12:39;;;;;;;6.83;4.03;;;;;;;22.64;63.89;98988.05;1669904;83;21028;-46
2022/09/09 10:15:34;;;;;;;6.87;5.30;;;;;;;23.23;62.61;98995.31;1694996;83;21016;-39
2022/09/09 10:18:18;;;;;;;10.80;7.12;;;;;;;24.16;62.30;98990.95;1667729;86;21388;-45
2022/09/09 10:21:05;;;;;;;15.05;6.37;;;;;;;24.76;60.31;98995.14;1650505;86;21454;-40
2022/09/09 10:23:57;;;;;;;8.50;5.85;;;;;;;25.04;57.28;98994.02;1667879;85;21028;-38
2022/09/09 10:26:43;;;;;;;6.70;5.67;;;;;;;24.78;57.91;98993.95;1667593;86;21036;-38
2022/09/09 10:29:43;;;;;;;10.25;5.78;;;;;;;24.44;57.69;99002.47;1655308;86;21008;-41
2022/09/09 10:32:38;;;;;;;7.15;5.92;;;;;;;24.11;55.63;99007.59;1667224;86;21164;-42
2022/09/09 10:35:27;;;;;;;7.25;5.53;;;;;;;23.61;56.32;99006.19;1667963;86;21971;-37
2022/09/09 10:38:16;;;;;;;7.42;5.20;;;;;;;23.54;56.94;99003.90;1667978;86;21063;-41
2022/09/09 10:41:02;;;;;;;5.33;4.83;;;;;;;23.33;56.36;99008.51;1667858;86;21144;-45
2022/09/09 10:43:36;;;;;;;6.80;4.40;;;;;;;23.18;57.13;99011.08;1667773;86;21063;-39
2022/09/09 10:46:20;;;;;;;9.20;5.15;;;;;;;23.26;56.78;99015.58;1667510;86;21035;-39
2022/09/09 10:49:27;;;;;;;8.33;4.37;;;;;;;23.13;56.46;99011.59;1667992;86;21008;-40
2022/09/09 10:52:19;;;;;;;7.53;4.72;;;;;;;23.70;56.05;99008.33;1667905;85;21064;-42
2022/09/09 10:55:19;;;;;;;6.17;4.72;;;;;;;23.81;55.64;99017.86;1667932;86;21023;-49
2022/09/09 10:57:55;;;;;;;5.08;4.42;;;;;;;23.83;55.15;99018.03;1683175;84;21477;-51
2022/09/09 11:00:32;;;;;;;6.85;4.47;;;;;;;23.85;54.49;99017.34;1688097;84;21004;-49
2022/09/09 11:03:03;;;;;;;8.60;4.80;;;;;;;24.01;54.97;99020.93;1688451;84;21065;-47
2022/09/09 11:05:46;;;;;;;9.15;5.70;;;;;;;24.12;54.87;99021.37;1689151;84;21021;-48
2022/09/09 11:08:22;;;;;;;10.90;5.70;;;;;;;23.80;55.21;99025.61;1689057;85;21075;-41
2022/09/09 11:11:03;;;;;;;8.53;4.92;;;;;;;24.19;55.95;99031.39;1688878;84;21052;-43
2022/09/09 11:14:12;;;;;;;5.00;4.42;;;;;;;25.29;51.46;99026.37;1691239;84;21039;-45
2022/09/09 11:16:56;;;;;;;11.25;6.87;;;;;;;25.67;51.82;99027.58;1691594;84;21027;-47
2022/09/09 11:19:42;;;;;;;6.80;3.85;;;;;;;25.85;50.63;99029.86;1688121;84;20980;-45
2022/09/09 11:22:29;;;;;;;8.70;3.85;;;;;;;26.05;48.88;99036.02;1687624;85;21485;-40
2022/09/09 11:25:08;;;;;;;;;;;;;;;26.95;49.50;99031.01;1686080;85;21128;-43
2022/09/09 11:27:42;;;;;;;3.58;3.30;;;;;;;26.96;44.61;99039.41;1689054;84;20111;-45
2022/09/09 11:30:25;;;;;;;4.65;3.40;;;;;;;27.79;46.99;99031.88;1687563;85;20995;-41
2022/09/09 11:33:21;;;;;;;3.47;3.20;;;;;;;28.61;45.89;99029.46;1687557;85;21027;-42
2022/09/09 11:35:55;;;;;;;4.55;3.52;;;;;;;29.03;43.82;99036.81;1694827;83;21110;-46
2022/09/09 11:38:50;;;;;;;3.00;2.80;;;;;;;29.90;42.80;99014.06;1694789;84;21055;-48
2022/09/09 11:41:16;;;;;;;5.87;2.83;;;;;;;30.40;38.04;99005.52;1696159;83;21016;-47
2022/09/09 11:43:51;;;;;;;4.72;2.40;;;;;;;31.13;38.16;99016.25;1694497;83;21631;-44
2022/09/09 11:46:21;;;;;;;3.72;2.20;;;;;;;31.56;37.95;99011.30;1678399;85;20999;-43
2022/09/09 11:49:02;;;;;;;3.22;2.37;;;;;;;30.92;37.75;99012.06;1682047;85;21491;-43
2022/09/09 11:51:31;;;;;;;11.73;3.12;;;;;;;31.69;36.44;99006.21;1682753;84;21496;-43
2022/09/09 11:54:29;;;;;;;2.67;2.37;;;;;;;32.57;33.32;99005.77;1681765;84;21070;-42
2022/09/09 11:56:56;;;;;;;4.62;2.10;;;;;;;33.01;33.94;99006.27;1663920;85;20990;-41
2022/09/09 11:59:26;;;;;;;3.47;2.40;;;;;;;33.52;32.56;99006.00;1679742;84;21331;-41